METAR LOCAUX

2021/01/25 22:30 LFST 252230Z AUTO 30003KT CAVOK 01/M02 Q1015 NOSIG
2021/01/25 22:20 EDSB 252220Z 24005KT 210V270 CAVOK 01/M01 Q1015
2021/01/25 22:30 LFGA 252230Z AUTO 31007KT CAVOK 02/M05 Q1015
www.noaa.gov

Ne pas utiliser pour préparer ou effectuer un vol: Utilisez la documentation officielle disponible sur aviation.meteo.fr (Aéroweb)


"Le soleil du matin ne dure pas forcément toute la journée."

Animation satellite IR

Meteociel.fr

"Derrière chaque nuage se cache le ciel bleu."

Radar pluie

Infoclimat.fr

"Si tu veux l’arc-en-ciel, tu dois supporter la pluie."
Dolly Parton

Nébulosité (octas)

Meteociel.fr

"Le soleil est souvent obscurci par les nuages et la raison par les passions."
Démophile

Impacts de foudre

www.meteo60.fr

"Celui que frappe la foudre n'entend pas le tonnerre."

Vigilance météo

vigilance-meteo.fr

"Tout nuage n'enfante pas une tempête."
William Shakespeare

TAF locaux

2021/01/25 18:21 TAF LFST 251700Z 2518/2618 26005KT 9999 FEW030 BKN050
2021/01/25 18:27 TAF EDSB 251700Z 2518/2618 24005KT 9999 SCT030 BECMG 2600/2603 19010KT TEMPO 2603/2610 19015KT BKN012 BECMG 2610/2612 26010KT BECMG 2616/2618 22005KT
www.noaa.gov

Ne pas utiliser pour préparer ou effectuer un vol: Utilisez la documentation officielle disponible sur aviation.meteo.fr (Aéroweb)


"Les jours où le ciel est gris, le soleil n'a pas disparu à tout jamais."
Arnaud Desjardins

Prévisions 7 jours


Meteoblue.com

"Quand les crapauds chantent, le beau temps s'avance !"